createdAt,value
2024-05-09T00:02:20.239Z,65.7
2024-05-09T00:05:07.792Z,66.2
2024-05-09T00:07:55.887Z,65.4
2024-05-09T00:10:43.429Z,64.8
2024-05-09T00:13:31.085Z,65.9
2024-05-09T00:16:19.622Z,66.4
2024-05-09T00:19:06.985Z,65.6
2024-05-09T00:21:54.418Z,67
2024-05-09T00:24:42.091Z,65.4
2024-05-09T00:27:29.801Z,66.4
2024-05-09T00:30:27.745Z,67
2024-05-09T00:33:20.565Z,67.7
2024-05-09T00:36:08.056Z,67.1
2024-05-09T00:38:55.412Z,66.9
2024-05-09T00:41:42.685Z,67.3
2024-05-09T00:44:30.399Z,67.9
2024-05-09T00:47:19.185Z,67.9
2024-05-09T00:50:12.848Z,67
2024-05-09T00:53:07.210Z,68.1
2024-05-09T00:55:57.595Z,67.9
2024-05-09T00:58:47.096Z,67.1
2024-05-09T01:01:36.298Z,67.4
2024-05-09T01:04:25.286Z,69.2
2024-05-09T01:07:12.579Z,68.4
2024-05-09T01:10:00.232Z,68.6
2024-05-09T01:12:48.340Z,68.1
2024-05-09T01:15:36.058Z,67.4
2024-05-09T01:18:23.941Z,68.4
2024-05-09T01:21:11.826Z,69.4
2024-05-09T01:23:59.383Z,69
2024-05-09T01:26:47.108Z,68.6
2024-05-09T01:29:35.411Z,68.9
2024-05-09T01:32:22.932Z,69
2024-05-09T01:35:10.893Z,68.7
2024-05-09T01:37:58.399Z,68.4
2024-05-09T01:40:45.944Z,69.1
2024-05-09T01:43:34.424Z,69.1
2024-05-09T01:46:21.763Z,68.5
2024-05-09T01:49:09.126Z,68.2
2024-05-09T01:51:56.998Z,67.9
2024-05-09T01:54:44.390Z,68.2
2024-05-09T01:57:32.066Z,68.2
2024-05-09T02:00:30.199Z,68
2024-05-09T02:03:25.044Z,69.3
2024-05-09T02:06:12.859Z,69.2
2024-05-09T02:09:00.132Z,69.2
2024-05-09T02:11:47.734Z,68.9
2024-05-09T02:14:35.244Z,68.9
2024-05-09T02:17:23.106Z,68.5
2024-05-09T02:23:00.633Z,69.3
2024-05-09T02:25:48.818Z,69.8
2024-05-09T02:28:36.188Z,69.4
2024-05-09T02:31:23.501Z,70
2024-05-09T02:34:10.913Z,69.9
2024-05-09T02:36:58.532Z,70.1
2024-05-09T02:39:45.861Z,69.8
2024-05-09T02:42:33.293Z,69.9
2024-05-09T02:45:20.654Z,70.2
2024-05-09T02:48:09.443Z,70.5
2024-05-09T02:50:57.230Z,70.8
2024-05-09T02:53:47.077Z,71.5
2024-05-09T02:56:34.543Z,71.6
2024-05-09T02:59:22.130Z,70.8
2024-05-09T03:02:09.861Z,71.4
2024-05-09T03:04:58.288Z,71.7
2024-05-09T03:07:45.822Z,71.7
2024-05-09T03:13:21.941Z,71.5
2024-05-09T03:16:09.436Z,71.8
2024-05-09T03:18:57.004Z,72.2
2024-05-09T03:21:44.572Z,72.7
2024-05-09T03:24:32.187Z,72.9
2024-05-09T03:27:19.782Z,73.3
2024-05-09T03:30:10.006Z,73.6
2024-05-09T03:32:57.857Z,74.3
2024-05-09T03:35:45.412Z,74.5
2024-05-09T03:38:33.866Z,76.2
2024-05-09T03:41:24.310Z,76.1
2024-05-09T03:44:11.967Z,74.9
2024-05-09T03:46:59.550Z,74.8
2024-05-09T03:49:46.974Z,75.1
2024-05-09T03:52:34.429Z,75.1
2024-05-09T03:55:21.827Z,74.9
2024-05-09T03:58:09.120Z,74.8
2024-05-09T04:00:58.874Z,75.4
2024-05-09T04:03:46.599Z,75.5
2024-05-09T04:06:34.246Z,76.3
2024-05-09T04:09:21.501Z,76.8
2024-05-09T04:12:09.252Z,76.9
2024-05-09T04:14:56.663Z,76.8
2024-05-09T04:17:44.393Z,76.9
2024-05-09T04:20:39.214Z,76.9
2024-05-09T04:23:28.774Z,77.3
2024-05-09T04:26:16.852Z,76.6
2024-05-09T04:29:04.412Z,77.4
2024-05-09T04:31:52.034Z,76.9
2024-05-09T04:34:39.339Z,76
2024-05-09T04:37:26.790Z,76.5
2024-05-09T04:40:24.225Z,77
2024-05-09T04:43:19.265Z,77.9
2024-05-09T04:46:06.814Z,77.3
2024-05-09T04:48:54.228Z,77.4
2024-05-09T04:51:41.562Z,77.4
2024-05-09T04:54:35.852Z,76.8
2024-05-09T04:57:24.145Z,76.9
2024-05-09T05:00:14.791Z,76.8
2024-05-09T05:03:10.618Z,77.4
2024-05-09T05:06:00.294Z,77
2024-05-09T05:08:47.775Z,77.9
2024-05-09T05:11:35.175Z,77.9
2024-05-09T05:14:22.735Z,76.8
2024-05-09T05:17:10.051Z,77
2024-05-09T05:19:57.537Z,77.1
2024-05-09T05:22:45.143Z,76.7
2024-05-09T05:25:33.086Z,76.5
2024-05-09T05:28:20.495Z,77.3
2024-05-09T05:31:08.153Z,76.4
2024-05-09T05:33:55.675Z,76.8
2024-05-09T05:36:44.306Z,77
2024-05-09T05:39:31.945Z,77.9
2024-05-09T05:42:19.890Z,77.9
2024-05-09T05:45:09.645Z,78.2
2024-05-09T05:47:57.450Z,77.9
2024-05-09T05:50:47.803Z,78.3
2024-05-09T05:53:35.376Z,78.4
2024-05-09T05:56:22.739Z,77.9
2024-05-09T05:59:15.063Z,77.9
2024-05-09T06:02:02.666Z,77.1
2024-05-09T06:04:50.746Z,77.1
2024-05-09T06:07:38.566Z,76
2024-05-09T06:10:30.594Z,74.1
2024-05-09T06:13:25.438Z,72.9
2024-05-09T06:16:12.824Z,73.2
2024-05-09T06:19:00.345Z,71.9
2024-05-09T06:21:47.930Z,72.7
2024-05-09T06:24:35.370Z,73.3
2024-05-09T06:27:23.056Z,73.4
2024-05-09T06:30:21.083Z,73.2
2024-05-09T06:33:15.721Z,72.4
2024-05-09T06:36:04.611Z,71.3
2024-05-09T06:38:52.787Z,70.9
2024-05-09T06:41:40.285Z,70.8
2024-05-09T06:44:28.327Z,70.7
2024-05-09T06:47:16.026Z,71.7
2024-05-09T06:50:04.974Z,69.5
2024-05-09T06:52:55.569Z,68.7
2024-05-09T06:55:43.017Z,69.6
2024-05-09T06:58:30.454Z,68
2024-05-09T07:01:19.154Z,68.3
2024-05-09T07:04:06.819Z,68.4
2024-05-09T07:06:54.367Z,68.6
2024-05-09T07:09:42.277Z,68
2024-05-09T07:12:29.664Z,69.1
2024-05-09T07:15:19.035Z,67.8
2024-05-09T07:18:06.668Z,68.1
2024-05-09T07:20:55.935Z,67.2
2024-05-09T07:23:46.934Z,66.5
2024-05-09T07:26:34.875Z,66.2
2024-05-09T07:29:22.647Z,70.1
2024-05-09T07:32:10.100Z,67.9
2024-05-09T07:34:57.655Z,67.9
2024-05-09T07:37:45.125Z,67.2
2024-05-09T07:40:36.638Z,65.5
2024-05-09T07:43:25.992Z,68.1
2024-05-09T07:47:14.123Z,65.9
2024-05-09T07:54:06.774Z,64.8
2024-05-09T07:56:55.261Z,64.8
2024-05-09T07:59:42.936Z,63.8
2024-05-09T08:02:30.509Z,64.8
2024-05-09T08:05:19.308Z,64.8
2024-05-09T08:08:06.906Z,64
2024-05-09T08:10:55.886Z,62.7
2024-05-09T08:13:43.629Z,62.2
2024-05-09T08:16:31.575Z,62.9
2024-05-09T08:19:20.483Z,63
2024-05-09T08:22:07.939Z,60.2
2024-05-09T08:24:55.479Z,61.3
2024-05-09T08:27:43.221Z,60.1
2024-05-09T08:30:36.788Z,56.4
2024-05-09T08:33:25.965Z,55.7
2024-05-09T08:36:13.535Z,56.7
2024-05-09T08:39:00.935Z,53.9
2024-05-09T08:41:48.586Z,54.4
2024-05-09T08:44:36.231Z,53.6
2024-05-09T08:47:23.987Z,54.4
2024-05-09T08:50:24.319Z,53.9
2024-05-09T08:53:21.755Z,54.5
2024-05-09T08:56:09.072Z,54.1
2024-05-09T08:58:56.823Z,52.2
2024-05-09T09:01:46.870Z,53.8
2024-05-09T09:04:35.415Z,53.6
2024-05-09T09:07:25.457Z,54.7
2024-05-09T09:10:21.210Z,52.4
2024-05-09T09:13:16.289Z,52.2
2024-05-09T09:16:04.025Z,51.8
2024-05-09T09:18:52.486Z,51.7
2024-05-09T09:21:41.915Z,50.2
2024-05-09T09:24:29.615Z,49.8
2024-05-09T09:27:18.037Z,49.5
2024-05-09T09:30:13.265Z,50.2
2024-05-09T09:33:06.671Z,50
2024-05-09T09:35:55.521Z,48.9
2024-05-09T09:38:42.869Z,48.5
2024-05-09T09:41:32.617Z,46.7
2024-05-09T09:44:21.817Z,48.7
2024-05-09T09:47:10.113Z,49.6
2024-05-09T09:49:59.642Z,48.9
2024-05-09T09:52:48.921Z,47.9
2024-05-09T09:55:37.979Z,44.4
2024-05-09T09:58:26.629Z,44.2
2024-05-09T10:01:18.117Z,42.2
2024-05-09T10:04:05.668Z,42.6
2024-05-09T10:06:54.363Z,43.9
2024-05-09T10:09:44.336Z,43.8
2024-05-09T10:12:32.326Z,43.2
2024-05-09T10:15:20.281Z,41.6
2024-05-09T10:18:07.925Z,41.1
2024-05-09T10:20:55.420Z,41.8
2024-05-09T10:23:44.046Z,43.5
2024-05-09T10:26:43.151Z,41.7
2024-05-09T10:29:37.725Z,42.8
2024-05-09T10:32:35.985Z,43.4
2024-05-09T10:35:25.300Z,42.2
2024-05-09T10:38:18.003Z,44.8
2024-05-09T10:41:05.533Z,47.2
2024-05-09T10:43:53.811Z,48
2024-05-09T10:46:41.180Z,46.4
2024-05-09T10:49:30.298Z,44.8
2024-05-09T10:52:19.554Z,41.5
2024-05-09T10:55:07.380Z,42.2
2024-05-09T10:57:54.912Z,42.6
2024-05-09T11:00:42.476Z,42.6
2024-05-09T11:03:30.206Z,41.7
2024-05-09T11:06:19.481Z,40.3
2024-05-09T11:09:07.575Z,39.1
2024-05-09T11:11:55.733Z,38.1
2024-05-09T11:14:43.537Z,38
2024-05-09T11:17:38.248Z,37.4
2024-05-09T11:20:29.766Z,38.9
2024-05-09T11:23:21.184Z,40.3
2024-05-09T11:26:11.024Z,37.6
2024-05-09T11:28:59.790Z,38.7
2024-05-09T11:31:47.462Z,37
2024-05-09T11:34:35.020Z,37.2
2024-05-09T11:37:23.220Z,37.8
2024-05-09T11:40:13.876Z,38.2
2024-05-09T11:43:09.135Z,37.3
2024-05-09T11:45:56.549Z,35.3
2024-05-09T11:48:45.287Z,35.8
2024-05-09T11:51:33.002Z,35.4
2024-05-09T11:54:21.009Z,35.9
2024-05-09T11:57:08.507Z,33
2024-05-09T11:59:55.978Z,35.6
2024-05-09T12:02:43.556Z,34.8
2024-05-09T12:05:31.424Z,33.9
2024-05-09T12:08:19.646Z,35.5
2024-05-09T12:11:07.483Z,33.8
2024-05-09T12:13:55.065Z,32.5
2024-05-09T12:16:42.579Z,32.8
2024-05-09T12:19:30.358Z,33.4
2024-05-09T12:22:18.999Z,30
2024-05-09T12:25:06.563Z,29.9
2024-05-09T12:27:54.327Z,32.4
2024-05-09T12:30:42.154Z,31
2024-05-09T12:33:30.249Z,30.3
2024-05-09T12:36:19.915Z,30.7
2024-05-09T12:39:07.561Z,29.6
2024-05-09T12:41:55.197Z,29.4
2024-05-09T12:44:42.735Z,28.2
2024-05-09T12:47:30.228Z,29.9
2024-05-09T12:50:25.316Z,30.4
2024-05-09T12:53:20.057Z,31.7
2024-05-09T12:56:09.393Z,29.8
2024-05-09T12:58:57.166Z,30.1
2024-05-09T13:01:44.862Z,30.4
2024-05-09T13:04:32.606Z,30.5
2024-05-09T13:07:20.907Z,29
2024-05-09T13:10:13.920Z,28.6
2024-05-09T13:13:04.075Z,29.3
2024-05-09T13:15:51.590Z,28.6
2024-05-09T13:18:39.331Z,28.4
2024-05-09T13:21:28.650Z,27.7
2024-05-09T13:24:16.112Z,28.8
2024-05-09T13:27:03.602Z,28.6
2024-05-09T13:29:51.240Z,28
2024-05-09T13:32:41.846Z,28.3
2024-05-09T13:35:29.489Z,26.9
2024-05-09T13:38:19.410Z,28.9
2024-05-09T13:41:07.568Z,27.7
2024-05-09T13:43:56.111Z,28.8
2024-05-09T13:46:43.955Z,27.2
2024-05-09T13:49:31.994Z,28.3
2024-05-09T13:52:20.755Z,27
2024-05-09T13:55:08.352Z,27.3
2024-05-09T13:57:56.746Z,26.4
2024-05-09T14:00:48.290Z,26.5
2024-05-09T14:03:37.674Z,26
2024-05-09T14:06:25.546Z,26.7
2024-05-09T14:09:13.367Z,26.3
2024-05-09T14:12:01.505Z,26.5
2024-05-09T14:14:49.449Z,26
2024-05-09T14:17:36.868Z,26.5
2024-05-09T14:20:30.986Z,27.9
2024-05-09T14:23:20.233Z,27.1
2024-05-09T14:26:08.114Z,26.5
2024-05-09T14:28:56.082Z,27
2024-05-09T14:31:43.600Z,26.6
2024-05-09T14:34:32.203Z,26.7
2024-05-09T14:37:20.690Z,26.7
2024-05-09T14:40:14.764Z,27.3
2024-05-09T14:43:10.468Z,26.6
2024-05-09T14:46:13.518Z,25.9
2024-05-09T14:49:01.236Z,26.2
2024-05-09T14:51:49.010Z,26.3
2024-05-09T14:54:36.954Z,27.3
2024-05-09T14:57:54.250Z,26
2024-05-09T15:00:45.706Z,26.1
2024-05-09T15:03:41.033Z,26.5
2024-05-09T15:06:32.869Z,27.1
2024-05-09T15:09:52.577Z,25.7
2024-05-09T15:13:07.908Z,26
2024-05-09T15:15:57.241Z,26
2024-05-09T15:18:47.682Z,25.3
2024-05-09T15:21:55.933Z,24.9
2024-05-09T15:25:04.422Z,25.1
2024-05-09T15:27:52.327Z,25.3
2024-05-09T15:34:02.058Z,26.4
2024-05-09T15:36:58.240Z,24.4
2024-05-09T15:40:26.232Z,25.1
2024-05-09T15:43:45.472Z,24
2024-05-09T15:47:12.328Z,24.3
2024-05-09T15:50:02.130Z,24.3
2024-05-09T15:52:52.760Z,23.6
2024-05-09T15:55:41.412Z,24.1
2024-05-09T15:58:58.184Z,22.7
2024-05-09T16:02:07.585Z,22.3
2024-05-09T16:04:56.142Z,23.1
2024-05-09T16:08:07.833Z,22.8
2024-05-09T16:11:04.876Z,22.6
2024-05-09T16:13:53.119Z,22.8
2024-05-09T16:16:43.137Z,23.3
2024-05-09T16:19:32.492Z,23.3
2024-05-09T16:22:56.968Z,23.2
2024-05-09T16:26:01.618Z,23.2
2024-05-09T16:29:19.765Z,24
2024-05-09T16:32:11.380Z,23.9
2024-05-09T16:34:58.810Z,23.7
2024-05-09T16:37:46.153Z,23.5
2024-05-09T16:40:38.640Z,22.8
2024-05-09T16:43:28.967Z,23.5
2024-05-09T16:46:42.675Z,23.4
2024-05-09T16:52:44.992Z,23.4
2024-05-09T16:55:53.145Z,24
2024-05-09T16:58:47.407Z,24.9
2024-05-09T17:02:30.648Z,24.6
2024-05-09T17:05:42.894Z,25
2024-05-09T17:08:48.812Z,25.5
2024-05-09T17:11:36.656Z,25.8
2024-05-09T17:15:13.684Z,26.1
2024-05-09T17:18:20.886Z,27.8
2024-05-09T17:21:17.389Z,28.8
2024-05-09T17:28:05.876Z,29.4
2024-05-09T17:31:01.510Z,30.3
2024-05-09T17:33:49.762Z,30.9
2024-05-09T17:36:37.351Z,31.6
2024-05-09T17:39:28.862Z,32.4
2024-05-09T17:42:30.143Z,32.1
2024-05-09T17:45:27.651Z,32.1
2024-05-09T17:48:31.011Z,32.8
2024-05-09T17:51:36.329Z,33.8
2024-05-09T17:54:44.798Z,34.7
2024-05-09T17:57:59.558Z,35
2024-05-09T18:00:58.810Z,35.8
2024-05-09T18:04:41.102Z,37.2
2024-05-09T18:07:54.793Z,37.8
2024-05-09T18:10:55.728Z,41.1
2024-05-09T18:13:58.141Z,42.6
2024-05-09T18:16:47.412Z,46.2
2024-05-09T18:19:35.785Z,48.7
2024-05-09T18:22:23.336Z,49.3
2024-05-09T18:25:10.930Z,50
2024-05-09T18:28:17.408Z,50.5
2024-05-09T18:31:33.104Z,51.7
2024-05-09T18:34:21.967Z,51.6
2024-05-09T18:37:22.980Z,52.7
2024-05-09T18:40:27.307Z,52.6
2024-05-09T18:43:34.831Z,52.2
2024-05-09T18:46:45.856Z,53.9
2024-05-09T18:49:35.311Z,53.5
2024-05-09T18:52:48.771Z,54.5
2024-05-09T18:55:55.323Z,55.3
2024-05-09T18:58:51.691Z,57.2
2024-05-09T19:01:39.251Z,56.9
2024-05-09T19:04:27.053Z,57.6
2024-05-09T19:07:14.727Z,58.3
2024-05-09T19:10:05.546Z,59.1
2024-05-09T19:13:13.134Z,59.6
2024-05-09T19:16:02.950Z,60.2
2024-05-09T19:19:22.582Z,60.6
2024-05-09T19:22:22.667Z,60.4
2024-05-09T19:25:32.328Z,61.2
2024-05-09T19:28:22.038Z,61.1
2024-05-09T19:31:15.375Z,61.6
2024-05-09T19:40:37.445Z,62.8
2024-05-09T19:43:48.469Z,62.7
2024-05-09T19:46:50.175Z,62.6
2024-05-09T19:49:50.107Z,62.7
2024-05-09T19:52:59.162Z,62.5
2024-05-09T19:55:56.240Z,63.3
2024-05-09T19:59:25.508Z,63.6
2024-05-09T20:02:21.047Z,63.9
2024-05-09T20:05:28.517Z,63.7
2024-05-09T20:08:16.790Z,63.9
2024-05-09T20:11:23.773Z,64.2
2024-05-09T20:14:43.268Z,64
2024-05-09T20:17:54.659Z,63.8
2024-05-09T20:20:53.915Z,64.4
2024-05-09T20:23:41.745Z,64.7
2024-05-09T20:26:30.840Z,64.7
2024-05-09T20:29:19.421Z,64.2
2024-05-09T20:32:09.161Z,64.2
2024-05-09T20:37:16.115Z,65.6
2024-05-09T20:40:07.861Z,66.4
2024-05-09T20:43:18.394Z,66.9
2024-05-09T20:46:25.782Z,67.2
2024-05-09T20:49:33.290Z,67.2
2024-05-09T20:52:35.831Z,66.8
2024-05-09T20:58:58.307Z,67.2
2024-05-09T21:02:01.550Z,67.2
2024-05-09T21:04:55.002Z,68.3
2024-05-09T21:08:15.955Z,67.5
2024-05-09T21:11:09.566Z,69.1
2024-05-09T21:14:16.644Z,69.2
2024-05-09T21:17:19.593Z,68.3
2024-05-09T21:20:14.181Z,68.8
2024-05-09T21:23:20.070Z,68.7
2024-05-09T21:26:13.508Z,69.2
2024-05-09T21:29:01.759Z,69
2024-05-09T21:31:49.215Z,70.7
2024-05-09T21:34:36.573Z,70.4
2024-05-09T21:37:24.517Z,71.1
2024-05-09T21:40:16.855Z,70.4
2024-05-09T21:43:11.607Z,69.9
2024-05-09T21:45:59.296Z,70.1
2024-05-09T21:48:46.996Z,69.1
2024-05-09T21:51:34.490Z,68.7
2024-05-09T21:54:21.983Z,71
2024-05-09T21:57:09.314Z,71.1
2024-05-09T21:59:57.694Z,69.1
2024-05-09T22:02:45.490Z,69.6
2024-05-09T22:05:33.463Z,70.6
2024-05-09T22:08:21.751Z,70.4
2024-05-09T22:11:09.149Z,71.5
2024-05-09T22:13:56.751Z,70.7
2024-05-09T22:16:47.545Z,70.2
2024-05-09T22:19:34.985Z,71
2024-05-09T22:22:22.541Z,72.7
2024-05-09T22:25:10.618Z,73.6
2024-05-09T22:27:58.353Z,72.4
2024-05-09T22:30:47.004Z,71.5
2024-05-09T22:33:36.613Z,71.6
2024-05-09T22:36:24.143Z,72.2
2024-05-09T22:39:12.460Z,74.2
2024-05-09T22:45:18.984Z,73
2024-05-09T22:48:06.706Z,74.3
2024-05-09T22:50:54.956Z,73.9
2024-05-09T22:53:42.945Z,72.9
2024-05-09T22:56:30.347Z,73.3
2024-05-09T22:59:22.648Z,74.2
2024-05-09T23:02:25.806Z,74.7
2024-05-09T23:05:53.469Z,73.8
2024-05-09T23:08:47.936Z,73.9
2024-05-09T23:11:35.415Z,73.9
2024-05-09T23:14:27.767Z,73.8
2024-05-09T23:17:26.762Z,74.3
2024-05-09T23:20:14.946Z,75.9
2024-05-09T23:23:02.745Z,75.5
2024-05-09T23:26:13.253Z,75.1
2024-05-09T23:29:00.645Z,74.7
2024-05-09T23:31:48.264Z,75.3
2024-05-09T23:34:35.601Z,75.4
2024-05-09T23:37:23.187Z,75.2
2024-05-09T23:40:23.718Z,75.7
2024-05-09T23:43:14.349Z,75.2
2024-05-09T23:46:02.033Z,74.4
2024-05-09T23:48:50.130Z,75.5
2024-05-09T23:51:39.707Z,76
2024-05-09T23:54:46.879Z,76.8
2024-05-09T23:57:34.537Z,76.4
